createdAt,value
2022-08-26T00:02:12.825Z,4.30
2022-08-26T00:04:45.702Z,5.30
2022-08-26T00:07:14.638Z,4.50
2022-08-26T00:09:43.031Z,5.10
2022-08-26T00:12:20.850Z,4.30
2022-08-26T00:15:02.699Z,4.90
2022-08-26T00:17:30.986Z,4.70
2022-08-26T00:19:59.419Z,4.90
2022-08-26T00:22:37.314Z,4.40
2022-08-26T00:25:08.115Z,4.50
2022-08-26T00:27:37.440Z,4.70
2022-08-26T00:30:17.367Z,4.60
2022-08-26T00:32:51.605Z,4.00
2022-08-26T00:35:28.053Z,4.20
2022-08-26T00:38:00.760Z,4.40
2022-08-26T00:40:37.570Z,4.60
2022-08-26T00:43:17.878Z,4.20
2022-08-26T00:45:57.436Z,6.60
2022-08-26T00:48:45.217Z,4.20
2022-08-26T00:51:20.380Z,4.70
2022-08-26T00:53:52.718Z,4.00
2022-08-26T00:56:40.889Z,4.10
2022-08-26T00:59:13.399Z,4.20
2022-08-26T01:01:44.134Z,4.70
2022-08-26T01:04:26.020Z,3.90
2022-08-26T01:08:03.608Z,3.70
2022-08-26T01:10:32.191Z,4.20
2022-08-26T01:13:07.293Z,5.00
2022-08-26T01:15:45.056Z,4.00
2022-08-26T01:18:14.925Z,4.70
2022-08-26T01:21:20.782Z,4.10
2022-08-26T01:23:57.292Z,4.40
2022-08-26T01:26:38.196Z,4.20
2022-08-26T01:34:35.169Z,4.00
2022-08-26T01:37:22.304Z,4.50
2022-08-26T01:40:00.739Z,4.30
2022-08-26T01:42:30.028Z,4.30
2022-08-26T01:45:06.072Z,4.50
2022-08-26T01:47:36.963Z,3.90
2022-08-26T01:50:28.046Z,5.20
2022-08-26T01:53:11.906Z,4.20
2022-08-26T01:56:06.093Z,4.40
2022-08-26T01:58:51.991Z,4.00
2022-08-26T02:01:24.216Z,5.10
2022-08-26T02:04:40.101Z,4.40
2022-08-26T02:07:10.123Z,4.00
2022-08-26T02:09:41.265Z,4.00
2022-08-26T02:12:17.471Z,4.60
2022-08-26T02:14:52.305Z,4.60
2022-08-26T02:17:44.223Z,4.20
2022-08-26T02:20:18.091Z,4.40
2022-08-26T02:22:48.569Z,4.90
2022-08-26T02:25:56.458Z,4.10
2022-08-26T02:28:31.495Z,4.20
2022-08-26T02:31:06.592Z,4.40
2022-08-26T02:33:37.500Z,4.80
2022-08-26T02:36:13.524Z,4.50
2022-08-26T02:38:47.747Z,4.20
2022-08-26T02:41:34.695Z,3.80
2022-08-26T02:44:22.646Z,4.20
2022-08-26T02:46:54.204Z,4.00
2022-08-26T02:52:12.903Z,4.20
2022-08-26T02:55:01.849Z,4.20
2022-08-26T02:57:38.767Z,3.80
2022-08-26T03:00:12.689Z,4.30
2022-08-26T03:02:43.761Z,4.50
2022-08-26T03:05:44.800Z,4.70
2022-08-26T03:08:23.331Z,3.80
2022-08-26T03:13:44.418Z,4.00
2022-08-26T03:16:23.639Z,3.80
2022-08-26T03:18:54.381Z,4.00
2022-08-26T03:24:47.425Z,3.60
2022-08-26T03:27:16.803Z,4.00
2022-08-26T03:30:04.659Z,4.10
2022-08-26T03:32:35.881Z,3.80
2022-08-26T03:35:10.138Z,3.80
2022-08-26T03:37:41.624Z,4.10
2022-08-26T03:40:21.122Z,3.40
2022-08-26T03:42:53.973Z,3.50
2022-08-26T03:45:22.578Z,4.10
2022-08-26T03:47:53.594Z,3.60
2022-08-26T03:50:38.697Z,3.90
2022-08-26T03:53:14.409Z,3.90
2022-08-26T03:55:46.192Z,4.00
2022-08-26T03:58:15.125Z,4.10
2022-08-26T04:00:43.566Z,4.30
2022-08-26T04:03:18.608Z,3.90
2022-08-26T04:05:54.528Z,3.90
2022-08-26T04:08:25.162Z,3.40
2022-08-26T04:11:00.821Z,3.40
2022-08-26T04:13:31.184Z,4.20
2022-08-26T04:16:01.121Z,3.50
2022-08-26T04:18:37.080Z,3.50
2022-08-26T04:21:10.296Z,4.40
2022-08-26T04:24:03.588Z,4.30
2022-08-26T04:26:39.471Z,3.70
2022-08-26T04:29:25.853Z,4.40
2022-08-26T04:31:56.022Z,3.60
2022-08-26T04:34:29.340Z,3.60
2022-08-26T04:36:58.544Z,3.50
2022-08-26T04:39:41.180Z,3.70
2022-08-26T04:42:14.255Z,3.60
2022-08-26T04:44:48.412Z,3.60
2022-08-26T04:47:19.816Z,3.80
2022-08-26T04:49:56.634Z,3.90
2022-08-26T04:52:33.155Z,4.90
2022-08-26T04:55:02.244Z,4.30
2022-08-26T04:57:43.022Z,3.40
2022-08-26T05:00:28.801Z,4.00
2022-08-26T05:02:57.921Z,4.10
2022-08-26T05:05:29.406Z,3.90
2022-08-26T05:07:57.855Z,4.40
2022-08-26T05:10:26.148Z,4.10
2022-08-26T05:12:55.260Z,4.00
2022-08-26T05:15:24.758Z,3.70
2022-08-26T05:17:53.899Z,4.10
2022-08-26T05:20:25.676Z,4.20
2022-08-26T05:22:54.620Z,4.40
2022-08-26T05:25:24.179Z,4.00
2022-08-26T05:27:55.676Z,4.50
2022-08-26T05:30:24.406Z,4.60
2022-08-26T05:32:55.365Z,4.00
2022-08-26T05:35:23.872Z,5.20
2022-08-26T05:37:52.350Z,4.60
2022-08-26T05:40:21.416Z,5.60
2022-08-26T05:42:50.123Z,4.40
2022-08-26T05:45:18.692Z,4.00
2022-08-26T05:47:50.392Z,4.60
2022-08-26T05:50:25.616Z,5.00
2022-08-26T05:52:54.283Z,4.10
2022-08-26T05:55:23.503Z,4.80
2022-08-26T05:57:52.580Z,4.80
2022-08-26T06:00:21.983Z,4.40
2022-08-26T06:02:50.837Z,4.60
2022-08-26T06:05:21.693Z,4.30
2022-08-26T06:08:09.029Z,4.90
2022-08-26T06:10:54.308Z,4.50
2022-08-26T06:13:27.486Z,4.10
2022-08-26T06:16:04.939Z,4.50
2022-08-26T06:18:36.932Z,4.40
2022-08-26T06:21:19.967Z,4.20
2022-08-26T06:24:09.897Z,4.50
2022-08-26T06:26:38.181Z,4.40
2022-08-26T06:29:07.531Z,4.20
2022-08-26T06:34:10.881Z,4.10
2022-08-26T06:36:43.842Z,3.70
2022-08-26T06:39:15.214Z,3.80
2022-08-26T06:41:45.237Z,3.80
2022-08-26T06:44:19.481Z,3.80
2022-08-26T06:46:50.531Z,4.80
2022-08-26T06:49:25.833Z,4.00
2022-08-26T06:51:59.018Z,4.10
2022-08-26T06:54:31.873Z,4.10
2022-08-26T06:57:01.288Z,3.70
2022-08-26T06:59:31.547Z,3.70
2022-08-26T07:02:00.266Z,3.50
2022-08-26T07:04:30.587Z,3.90
2022-08-26T07:06:59.298Z,3.80
2022-08-26T07:09:32.601Z,4.20
2022-08-26T07:12:01.932Z,3.80
2022-08-26T07:14:31.829Z,3.80
2022-08-26T07:17:02.766Z,4.20
2022-08-26T07:19:31.898Z,4.20
2022-08-26T07:22:05.228Z,3.90
2022-08-26T07:24:36.479Z,4.20
2022-08-26T07:27:10.608Z,5.00
2022-08-26T07:29:40.718Z,4.10
2022-08-26T07:32:10.351Z,4.90
2022-08-26T07:34:39.542Z,3.90
2022-08-26T07:37:10.298Z,4.40
2022-08-26T07:39:43.152Z,4.00
2022-08-26T07:42:14.424Z,5.10
2022-08-26T07:44:43.881Z,4.40
2022-08-26T07:47:24.694Z,4.30
2022-08-26T07:49:56.642Z,3.90
2022-08-26T07:52:30.008Z,4.50
2022-08-26T07:55:00.070Z,4.30
2022-08-26T07:57:29.565Z,5.20
2022-08-26T07:59:59.173Z,4.30
2022-08-26T08:02:29.951Z,4.40
2022-08-26T08:04:59.601Z,4.20
2022-08-26T08:07:44.190Z,4.00
2022-08-26T08:10:18.718Z,4.60
2022-08-26T08:12:57.778Z,3.90
2022-08-26T08:15:33.727Z,4.10
2022-08-26T08:18:07.376Z,4.60
2022-08-26T08:21:04.846Z,3.90
2022-08-26T08:23:34.802Z,4.10
2022-08-26T08:26:13.426Z,3.40
2022-08-26T08:28:48.190Z,3.80
2022-08-26T08:31:55.808Z,3.70
2022-08-26T08:34:16.189Z,4.00
2022-08-26T08:36:49.929Z,3.60
2022-08-26T08:39:23.516Z,3.60
2022-08-26T08:42:32.535Z,3.50
2022-08-26T08:45:10.684Z,3.40
2022-08-26T08:47:49.626Z,3.80
2022-08-26T08:50:38.884Z,3.80
2022-08-26T08:53:36.906Z,4.10
2022-08-26T08:56:13.719Z,3.90
2022-08-26T08:59:19.141Z,3.90
2022-08-26T09:01:54.172Z,3.70
2022-08-26T09:07:37.530Z,3.70
2022-08-26T09:10:40.946Z,4.00
2022-08-26T09:13:25.117Z,3.50
2022-08-26T09:19:30.504Z,4.00
2022-08-26T09:22:04.683Z,3.70
2022-08-26T09:24:41.776Z,3.40
2022-08-26T09:27:40.337Z,4.10
2022-08-26T09:30:11.373Z,4.00
2022-08-26T09:32:55.921Z,3.20
2022-08-26T09:35:31.795Z,3.50
2022-08-26T09:38:00.693Z,3.60
2022-08-26T09:40:34.526Z,3.80
2022-08-26T09:43:22.720Z,2.90
2022-08-26T09:45:59.077Z,3.00
2022-08-26T09:48:40.691Z,3.00
2022-08-26T09:51:23.246Z,2.70
2022-08-26T09:53:59.060Z,2.90
2022-08-26T09:56:39.359Z,3.10
2022-08-26T09:59:12.199Z,3.00
2022-08-26T10:01:50.009Z,3.10
2022-08-26T10:04:38.699Z,3.30
2022-08-26T10:07:09.605Z,3.20
2022-08-26T10:09:43.226Z,3.10
2022-08-26T10:12:21.955Z,2.90
2022-08-26T10:14:56.535Z,3.00
2022-08-26T10:17:36.750Z,2.80
2022-08-26T10:20:22.654Z,2.80
2022-08-26T10:23:02.976Z,3.20
2022-08-26T10:25:52.727Z,3.00
2022-08-26T10:31:38.200Z,4.50
2022-08-26T10:34:18.530Z,3.80
2022-08-26T10:37:13.937Z,3.20
2022-08-26T10:39:59.245Z,2.80
2022-08-26T10:42:37.610Z,3.60
2022-08-26T10:45:22.380Z,3.20
2022-08-26T10:48:00.625Z,3.00
2022-08-26T10:50:37.347Z,3.30
2022-08-26T10:53:17.836Z,2.80
2022-08-26T10:56:06.259Z,2.80
2022-08-26T10:59:12.661Z,2.60
2022-08-26T11:02:12.994Z,3.10
2022-08-26T11:05:03.360Z,2.90
2022-08-26T11:07:46.476Z,2.90
2022-08-26T11:10:20.840Z,2.90
2022-08-26T11:13:07.250Z,2.70
2022-08-26T11:15:38.901Z,2.70
2022-08-26T11:18:13.649Z,2.80
2022-08-26T11:20:45.246Z,2.60
2022-08-26T11:23:16.992Z,2.50
2022-08-26T11:26:11.017Z,2.70
2022-08-26T11:28:44.846Z,3.00
2022-08-26T11:31:38.733Z,2.40
2022-08-26T11:34:21.212Z,2.70
2022-08-26T11:36:57.021Z,2.70
2022-08-26T11:39:54.456Z,3.00
2022-08-26T11:42:41.715Z,2.70
2022-08-26T11:45:22.887Z,2.70
2022-08-26T11:47:52.764Z,2.60
2022-08-26T11:50:26.252Z,2.50
2022-08-26T11:53:04.637Z,2.60
2022-08-26T11:55:41.991Z,2.80
2022-08-26T11:58:12.691Z,3.10
2022-08-26T12:00:58.151Z,2.70
2022-08-26T12:03:54.041Z,3.10
2022-08-26T12:06:30.818Z,2.50
2022-08-26T12:09:02.771Z,2.60
2022-08-26T12:11:39.255Z,2.40
2022-08-26T12:14:20.827Z,2.40
2022-08-26T12:16:49.342Z,2.90
2022-08-26T12:19:33.931Z,2.80
2022-08-26T12:22:07.102Z,2.90
2022-08-26T12:24:44.358Z,2.40
2022-08-26T12:27:25.338Z,2.70
2022-08-26T12:30:08.439Z,2.70
2022-08-26T12:37:58.922Z,2.60
2022-08-26T12:40:46.351Z,3.00
2022-08-26T12:43:48.039Z,2.40
2022-08-26T12:46:27.239Z,2.60
2022-08-26T12:49:05.163Z,3.30
2022-08-26T12:51:35.655Z,2.50
